松山國際航空站 - 塔臺

METAR RCSS 270030Z 17003KT 120V200 9999 -RA FEW005 BKN012 BKN030 17/17 Q1015 NOSIG RMK A2999=

站台狀態:Offline
最後更新:2021-02-27 08:30:01